createdAt,value
2023-04-19T00:00:47.807Z,10.63
2023-04-19T00:03:16.060Z,11.35
2023-04-19T00:05:43.561Z,9.05
2023-04-19T00:08:10.648Z,9.07
2023-04-19T00:10:39.153Z,9.77
2023-04-19T00:13:06.533Z,8.63
2023-04-19T00:15:35.360Z,9.48
2023-04-19T00:18:02.605Z,10.35
2023-04-19T00:20:29.754Z,11.70
2023-04-19T00:22:58.858Z,12.10
2023-04-19T00:25:26.167Z,9.43
2023-04-19T00:27:53.288Z,7.25
2023-04-19T00:30:20.481Z,8.85
2023-04-19T00:32:47.542Z,7.93
2023-04-19T00:35:15.109Z,8.70
2023-04-19T00:37:45.635Z,16.50
2023-04-19T00:40:13.042Z,10.95
2023-04-19T00:42:40.224Z,7.05
2023-04-19T00:45:10.300Z,7.18
2023-04-19T00:47:37.900Z,8.63
2023-04-19T00:50:06.078Z,7.45
2023-04-19T00:52:34.745Z,8.20
2023-04-19T00:55:02.132Z,8.07
2023-04-19T00:57:30.061Z,9.35
2023-04-19T00:59:58.206Z,8.63
2023-04-19T01:02:25.349Z,8.93
2023-04-19T01:04:52.819Z,6.13
2023-04-19T01:07:20.172Z,7.25
2023-04-19T01:09:47.375Z,8.30
2023-04-19T01:12:14.447Z,10.07
2023-04-19T01:14:41.951Z,11.55
2023-04-19T01:17:09.680Z,7.78
2023-04-19T01:19:37.295Z,8.32
2023-04-19T01:22:04.902Z,9.38
2023-04-19T01:24:34.175Z,6.43
2023-04-19T01:27:02.451Z,5.57
2023-04-19T01:29:29.493Z,12.02
2023-04-19T01:31:59.001Z,8.02
2023-04-19T01:34:26.028Z,6.85
2023-04-19T01:36:53.110Z,11.23
2023-04-19T01:39:20.251Z,8.13
2023-04-19T01:41:47.311Z,10.80
2023-04-19T01:44:14.501Z,5.40
2023-04-19T01:46:42.907Z,7.55
2023-04-19T01:49:10.151Z,9.25
2023-04-19T01:51:41.207Z,9.35
2023-04-19T01:54:08.353Z,7.50
2023-04-19T01:56:35.427Z,6.75
2023-04-19T01:59:02.594Z,9.13
2023-04-19T02:01:29.852Z,8.55
2023-04-19T02:03:57.255Z,8.00
2023-04-19T02:06:24.577Z,11.20
2023-04-19T02:08:51.736Z,6.07
2023-04-19T02:11:18.878Z,6.10
2023-04-19T02:13:46.188Z,9.05
2023-04-19T02:16:13.522Z,10.07
2023-04-19T02:18:42.270Z,6.97
2023-04-19T02:21:11.491Z,15.18
2023-04-19T02:23:38.612Z,8.10
2023-04-19T02:26:05.883Z,5.93
2023-04-19T02:28:33.198Z,7.43
2023-04-19T02:31:04.858Z,6.72
2023-04-19T02:33:32.269Z,6.38
2023-04-19T02:35:59.321Z,9.23
2023-04-19T02:38:26.450Z,5.57
2023-04-19T02:40:53.518Z,9.05
2023-04-19T02:43:20.666Z,9.48
2023-04-19T02:45:47.844Z,9.80
2023-04-19T02:48:14.850Z,8.00
2023-04-19T02:50:45.327Z,8.89
2023-04-19T02:53:12.350Z,8.07
2023-04-19T02:55:39.374Z,8.45
2023-04-19T02:58:06.482Z,8.68
2023-04-19T03:00:36.138Z,9.95
2023-04-19T03:03:04.934Z,11.93
2023-04-19T03:05:32.336Z,9.75
2023-04-19T03:07:59.405Z,9.55
2023-04-19T03:10:26.505Z,10.27
2023-04-19T03:12:53.662Z,7.15
2023-04-19T03:15:20.956Z,10.27
2023-04-19T03:17:48.311Z,9.25
2023-04-19T03:20:17.478Z,10.70
2023-04-19T03:22:44.542Z,8.07
2023-04-19T03:25:13.572Z,10.80
2023-04-19T03:27:40.672Z,7.32
2023-04-19T03:30:08.233Z,9.10
2023-04-19T03:32:35.411Z,9.98
2023-04-19T03:35:02.551Z,8.52
2023-04-19T03:37:29.600Z,10.02
2023-04-19T03:39:59.228Z,10.23
2023-04-19T03:42:28.732Z,11.10
2023-04-19T03:44:58.362Z,12.32
2023-04-19T03:47:25.482Z,16.25
2023-04-19T03:49:52.607Z,9.13
2023-04-19T03:52:19.805Z,9.88
2023-04-19T03:54:46.816Z,7.10
2023-04-19T03:57:15.410Z,10.40
2023-04-19T03:59:42.454Z,9.45
2023-04-19T04:02:09.699Z,8.25
2023-04-19T04:04:36.994Z,10.95
2023-04-19T04:07:10.739Z,25.08
2023-04-19T04:09:37.736Z,74.40
2023-04-19T04:12:05.256Z,73.47
2023-04-19T04:14:32.247Z,55.33
2023-04-19T04:16:59.292Z,26.75
2023-04-19T04:19:26.461Z,19.17
2023-04-19T04:21:53.406Z,16.85
2023-04-19T04:24:22.272Z,19.02
2023-04-19T04:26:50.254Z,18.58
2023-04-19T04:29:21.036Z,14.95
2023-04-19T04:31:48.052Z,15.05
2023-04-19T04:34:15.293Z,13.80
2023-04-19T04:36:42.535Z,10.93
2023-04-19T04:39:12.138Z,19.60
2023-04-19T04:41:42.332Z,30.98
2023-04-19T04:44:12.994Z,29.48
2023-04-19T04:46:40.269Z,25.88
2023-04-19T04:49:07.536Z,10.82
2023-04-19T04:51:35.015Z,11.20
2023-04-19T04:54:02.072Z,8.52
2023-04-19T04:56:29.124Z,16.05
2023-04-19T04:58:57.248Z,11.82
2023-04-19T05:01:27.331Z,9.73
2023-04-19T05:03:54.567Z,8.57
2023-04-19T05:06:21.603Z,14.80
2023-04-19T05:08:48.577Z,15.73
2023-04-19T05:11:15.776Z,13.00
2023-04-19T05:13:43.112Z,14.82
2023-04-19T05:16:10.259Z,18.42
2023-04-19T05:18:39.784Z,18.33
2023-04-19T05:21:10.479Z,21.75
2023-04-19T05:23:38.446Z,14.20
2023-04-19T05:26:06.026Z,16.55
2023-04-19T05:28:36.073Z,13.98
2023-04-19T05:31:06.000Z,10.85
2023-04-19T05:33:33.162Z,19.95
2023-04-19T05:36:00.405Z,19.83
2023-04-19T05:38:27.414Z,19.15
2023-04-19T05:40:54.519Z,17.17
2023-04-19T05:43:22.113Z,17.70
2023-04-19T05:45:49.413Z,10.00
2023-04-19T05:48:16.554Z,15.35
2023-04-19T05:50:43.714Z,8.02
2023-04-19T05:53:10.869Z,9.27
2023-04-19T05:55:40.798Z,10.95
2023-04-19T05:58:08.416Z,12.38
2023-04-19T06:00:35.847Z,11.40
2023-04-19T06:03:03.244Z,15.27
2023-04-19T06:05:30.654Z,16.20
2023-04-19T06:08:02.819Z,17.23
2023-04-19T06:10:40.251Z,21.42
2023-04-19T06:13:08.175Z,11.55
2023-04-19T06:15:35.525Z,12.48
2023-04-19T06:18:02.697Z,13.15
2023-04-19T06:20:29.807Z,13.88
2023-04-19T06:22:59.330Z,9.52
2023-04-19T06:25:26.532Z,11.65
2023-04-19T06:27:53.777Z,10.13
2023-04-19T06:30:21.119Z,9.18
2023-04-19T06:32:48.387Z,11.05
2023-04-19T06:35:16.238Z,14.07
2023-04-19T06:37:43.351Z,12.32
2023-04-19T06:40:12.259Z,11.63
2023-04-19T06:42:39.380Z,10.10
2023-04-19T06:45:07.073Z,13.02
2023-04-19T06:47:35.571Z,13.02
2023-04-19T06:50:03.554Z,13.02
2023-04-19T06:52:30.665Z,13.00
2023-04-19T06:55:00.405Z,12.82
2023-04-19T06:57:27.530Z,10.50
2023-04-19T06:59:55.362Z,14.48
2023-04-19T07:02:22.613Z,14.77
2023-04-19T07:04:50.087Z,11.80
2023-04-19T07:07:18.108Z,18.25
2023-04-19T07:09:45.706Z,9.60
2023-04-19T07:12:12.798Z,10.52
2023-04-19T07:14:41.968Z,11.93
2023-04-19T07:17:09.268Z,10.02
2023-04-19T07:19:36.577Z,18.73
2023-04-19T07:22:03.661Z,10.63
2023-04-19T07:24:31.216Z,12.55
2023-04-19T07:26:58.376Z,16.80
2023-04-19T07:29:25.608Z,13.70
2023-04-19T07:31:55.624Z,10.82
2023-04-19T07:34:22.825Z,12.65
2023-04-19T07:36:49.884Z,22.60
2023-04-19T07:39:18.159Z,19.73
2023-04-19T07:41:46.490Z,13.85
2023-04-19T07:44:13.946Z,17.98
2023-04-19T07:46:44.341Z,18.40
2023-04-19T07:49:11.430Z,14.35
2023-04-19T07:51:38.747Z,16.35
2023-04-19T07:54:08.585Z,12.02
2023-04-19T07:56:38.629Z,13.63
2023-04-19T07:59:09.016Z,12.70
2023-04-19T08:01:37.442Z,16.95
2023-04-19T08:04:05.158Z,15.68
2023-04-19T08:06:35.597Z,16.38
2023-04-19T08:09:03.312Z,11.63
2023-04-19T08:11:30.296Z,9.65
2023-04-19T08:17:10.819Z,10.60
2023-04-19T08:19:15.648Z,11.95
2023-04-19T08:21:42.769Z,11.10
2023-04-19T08:24:12.516Z,13.68
2023-04-19T08:26:42.707Z,14.55
2023-04-19T08:29:09.864Z,16.23
2023-04-19T08:31:36.887Z,10.65
2023-04-19T08:34:04.131Z,12.68
2023-04-19T08:36:37.729Z,12.43
2023-04-19T08:39:20.820Z,11.15
2023-04-19T08:42:06.838Z,12.48
2023-04-19T08:44:51.032Z,12.25
2023-04-19T08:47:32.413Z,15.57
2023-04-19T08:52:37.284Z,11.52
2023-04-19T08:55:12.012Z,15.52
2023-04-19T08:57:39.237Z,11.77
2023-04-19T09:00:09.311Z,10.93
2023-04-19T09:02:50.120Z,10.20
2023-04-19T09:05:18.448Z,11.40
2023-04-19T09:07:46.827Z,14.73
2023-04-19T09:10:21.862Z,12.63
2023-04-19T09:13:05.754Z,12.68
2023-04-19T09:15:40.124Z,15.98
2023-04-19T09:18:10.274Z,11.80
2023-04-19T09:20:42.009Z,11.55
2023-04-19T09:23:12.901Z,10.77
2023-04-19T09:25:59.308Z,11.27
2023-04-19T09:28:33.873Z,10.32
2023-04-19T09:31:35.402Z,10.48
2023-04-19T09:34:18.178Z,12.75
2023-04-19T09:36:45.998Z,9.35
2023-04-19T09:39:14.897Z,14.88
2023-04-19T09:41:55.032Z,11.75
2023-04-19T09:46:53.828Z,14.14
2023-04-19T09:49:37.562Z,20.55
2023-04-19T09:52:15.308Z,21.17
2023-04-19T09:54:45.019Z,18.88
2023-04-19T09:57:12.434Z,16.33
2023-04-19T09:59:39.899Z,15.43
2023-04-19T10:02:09.902Z,17.58
2023-04-19T10:04:56.966Z,19.67
2023-04-19T10:07:30.577Z,16.88
2023-04-19T10:10:11.894Z,17.92
2023-04-19T10:15:22.529Z,18.35
2023-04-19T10:17:49.934Z,23.15
2023-04-19T10:20:46.434Z,16.65
2023-04-19T10:23:13.689Z,14.25
2023-04-19T10:25:41.103Z,24.65
2023-04-19T10:28:10.982Z,15.05
2023-04-19T10:31:16.486Z,17.33
2023-04-19T10:33:43.668Z,14.45
2023-04-19T10:36:14.807Z,15.57
2023-04-19T10:38:44.829Z,12.95
2023-04-19T10:41:15.375Z,10.57
2023-04-19T10:43:58.375Z,13.05
2023-04-19T10:46:26.578Z,12.35
2023-04-19T10:48:54.911Z,15.55
2023-04-19T10:51:36.649Z,25.85
2023-04-19T10:54:08.560Z,22.15
2023-04-19T10:56:39.460Z,11.65
2023-04-19T10:59:09.097Z,16.00
2023-04-19T11:01:38.280Z,13.45
2023-04-19T11:04:27.542Z,17.95
2023-04-19T11:07:01.816Z,11.52
2023-04-19T11:09:33.595Z,12.13
2023-04-19T11:12:08.901Z,10.20
2023-04-19T11:14:46.861Z,13.45
2023-04-19T11:17:28.603Z,9.82
2023-04-19T11:19:57.539Z,15.25
2023-04-19T11:22:41.259Z,13.27
2023-04-19T11:25:12.800Z,13.93
2023-04-19T11:27:41.801Z,10.52
2023-04-19T11:30:20.397Z,12.95
2023-04-19T11:32:52.030Z,12.07
2023-04-19T11:35:21.379Z,12.43
2023-04-19T11:37:48.718Z,8.55
2023-04-19T11:40:17.259Z,9.30
2023-04-19T11:42:45.158Z,8.13
2023-04-19T11:45:25.833Z,11.27
2023-04-19T11:47:56.253Z,10.63
2023-04-19T11:50:39.670Z,8.68
2023-04-19T11:53:22.527Z,9.32
2023-04-19T11:55:55.025Z,9.00
2023-04-19T11:58:36.271Z,7.53
2023-04-19T12:01:06.529Z,11.27
2023-04-19T12:03:35.104Z,13.98
2023-04-19T12:06:10.753Z,10.32
2023-04-19T12:08:40.124Z,15.18
2023-04-19T12:11:07.371Z,15.48
2023-04-19T12:13:35.210Z,14.73
2023-04-19T12:16:03.074Z,11.23
2023-04-19T12:18:47.109Z,10.23
2023-04-19T12:21:28.874Z,11.55
2023-04-19T12:24:00.762Z,15.55
2023-04-19T12:26:29.144Z,10.27
2023-04-19T12:28:57.382Z,13.70
2023-04-19T12:31:24.646Z,13.98
2023-04-19T12:33:51.758Z,12.38
2023-04-19T12:36:18.850Z,13.98
2023-04-19T12:38:45.911Z,22.98
2023-04-19T12:41:12.995Z,11.75
2023-04-19T12:43:40.248Z,9.43
2023-04-19T12:46:07.335Z,9.38
2023-04-19T12:48:34.479Z,11.75
2023-04-19T12:51:03.688Z,10.98
2023-04-19T12:53:30.789Z,11.68
2023-04-19T12:55:58.052Z,14.25
2023-04-19T12:58:25.302Z,13.23
2023-04-19T13:00:52.540Z,12.52
2023-04-19T13:03:19.846Z,13.48
2023-04-19T13:05:47.356Z,13.05
2023-04-19T13:08:14.347Z,15.50
2023-04-19T13:10:41.363Z,15.90
2023-04-19T13:13:08.354Z,11.40
2023-04-19T13:15:35.512Z,15.80
2023-04-19T13:18:02.733Z,11.13
2023-04-19T13:20:29.826Z,10.50
2023-04-19T13:22:58.892Z,9.52
2023-04-19T13:25:26.377Z,11.25
2023-04-19T13:27:53.427Z,9.82
2023-04-19T13:30:22.829Z,12.73
2023-04-19T13:32:53.494Z,16.77
2023-04-19T13:35:20.541Z,12.95
2023-04-19T13:37:47.811Z,17.25
2023-04-19T13:40:19.453Z,13.27
2023-04-19T13:42:46.932Z,15.38
2023-04-19T13:45:14.221Z,14.90
2023-04-19T13:47:41.470Z,10.23
2023-04-19T13:50:09.055Z,12.52
2023-04-19T13:52:36.587Z,13.15
2023-04-19T13:55:04.312Z,12.60
2023-04-19T13:57:31.346Z,17.27
2023-04-19T14:00:00.405Z,14.93
2023-04-19T14:02:30.036Z,19.13
2023-04-19T14:04:59.781Z,14.30
2023-04-19T14:07:27.069Z,12.07
2023-04-19T14:09:54.222Z,13.13
2023-04-19T14:12:21.489Z,15.30
2023-04-19T14:14:48.514Z,12.93
2023-04-19T14:17:15.532Z,19.05
2023-04-19T14:19:42.745Z,14.23
2023-04-19T14:22:12.114Z,13.65
2023-04-19T14:24:41.533Z,13.70
2023-04-19T14:27:10.939Z,17.60
2023-04-19T14:29:39.770Z,17.20
2023-04-19T14:32:23.556Z,15.40
2023-04-19T14:34:52.979Z,15.05
2023-04-19T14:37:21.329Z,17.60
2023-04-19T14:39:48.391Z,14.23
2023-04-19T14:42:15.576Z,19.33
2023-04-19T14:44:43.066Z,18.13
2023-04-19T14:47:10.158Z,18.08
2023-04-19T14:49:37.227Z,16.77
2023-04-19T14:52:05.692Z,21.02
2023-04-19T14:54:33.134Z,25.00
2023-04-19T14:57:01.168Z,18.98
2023-04-19T14:59:29.845Z,22.25
2023-04-19T15:01:57.323Z,20.27
2023-04-19T15:04:24.639Z,25.70
2023-04-19T15:06:51.945Z,27.33
2023-04-19T15:09:19.158Z,29.50
2023-04-19T15:11:47.302Z,16.63
2023-04-19T15:14:14.595Z,22.30
2023-04-19T15:16:41.836Z,24.33
2023-04-19T15:19:08.977Z,19.85
2023-04-19T15:21:36.032Z,13.80
2023-04-19T15:24:03.878Z,14.50
2023-04-19T15:26:31.002Z,12.52
2023-04-19T15:28:58.246Z,20.88
2023-04-19T15:31:25.570Z,15.43
2023-04-19T15:33:53.514Z,15.10
2023-04-19T15:36:20.908Z,20.52
2023-04-19T15:38:48.044Z,15.38
2023-04-19T15:41:15.093Z,16.65
2023-04-19T15:43:42.454Z,13.20
2023-04-19T15:46:15.459Z,16.15
2023-04-19T15:48:43.308Z,17.13
2023-04-19T15:51:12.157Z,13.40
2023-04-19T15:53:39.280Z,16.02
2023-04-19T15:56:06.688Z,15.05
2023-04-19T15:58:33.788Z,12.48
2023-04-19T16:01:00.902Z,15.23
2023-04-19T16:03:28.620Z,18.13
2023-04-19T16:05:55.836Z,20.33
2023-04-19T16:08:23.260Z,27.30
2023-04-19T16:10:50.440Z,20.23
2023-04-19T16:13:18.694Z,21.50
2023-04-19T16:15:45.851Z,21.52
2023-04-19T16:18:14.232Z,19.38
2023-04-19T16:20:41.514Z,20.52
2023-04-19T16:23:08.730Z,15.98
2023-04-19T16:25:35.998Z,17.17
2023-04-19T16:28:03.815Z,16.98
2023-04-19T16:30:31.128Z,18.25
2023-04-19T16:32:58.705Z,18.92
2023-04-19T16:35:26.861Z,17.75
2023-04-19T16:37:56.687Z,20.58
2023-04-19T16:40:24.440Z,21.92
2023-04-19T16:42:51.735Z,20.58
2023-04-19T16:45:18.823Z,18.67
2023-04-19T16:47:46.461Z,16.60
2023-04-19T16:50:14.302Z,16.65
2023-04-19T16:52:50.295Z,17.83
2023-04-19T16:55:17.259Z,16.05
2023-04-19T16:57:44.437Z,14.35
2023-04-19T17:00:12.163Z,14.98
2023-04-19T17:02:39.579Z,17.90
2023-04-19T17:05:07.447Z,19.20
2023-04-19T17:07:36.854Z,14.30
2023-04-19T17:10:04.165Z,14.38
2023-04-19T17:12:32.562Z,16.63
2023-04-19T17:15:03.088Z,18.52
2023-04-19T17:17:30.374Z,22.48
2023-04-19T17:19:58.127Z,20.60
2023-04-19T17:22:25.198Z,19.27
2023-04-19T17:24:54.344Z,20.00
2023-04-19T17:27:21.409Z,19.63
2023-04-19T17:29:48.483Z,22.13
2023-04-19T17:32:15.639Z,19.13
2023-04-19T17:34:42.668Z,20.80
2023-04-19T17:37:09.780Z,21.90
2023-04-19T17:39:37.302Z,20.60
2023-04-19T17:42:05.074Z,17.98
2023-04-19T17:44:32.228Z,22.38
2023-04-19T17:46:59.392Z,23.17
2023-04-19T17:49:27.219Z,20.15
2023-04-19T17:51:56.408Z,20.52
2023-04-19T17:54:23.548Z,23.65
2023-04-19T17:56:52.790Z,22.88
2023-04-19T17:59:20.112Z,21.67
2023-04-19T18:01:47.167Z,26.65
2023-04-19T18:04:17.961Z,22.17
2023-04-19T18:06:46.600Z,16.88
2023-04-19T18:09:13.898Z,18.58
2023-04-19T18:11:41.384Z,21.15
2023-04-19T18:14:11.402Z,18.95
2023-04-19T18:16:38.746Z,15.57
2023-04-19T18:19:05.963Z,17.30
2023-04-19T18:21:33.684Z,15.77
2023-04-19T18:24:00.784Z,17.77
2023-04-19T18:26:38.298Z,18.35
2023-04-19T18:29:05.532Z,19.77
2023-04-19T18:31:32.812Z,18.08
2023-04-19T18:34:01.096Z,19.30
2023-04-19T18:36:32.250Z,22.33
2023-04-19T18:39:01.901Z,14.68
2023-04-19T18:41:29.034Z,21.38
2023-04-19T18:44:24.811Z,22.63
2023-04-19T18:46:43.516Z,21.23
2023-04-19T18:49:13.606Z,18.85
2023-04-19T18:51:40.725Z,23.00
2023-04-19T18:54:07.800Z,24.60
2023-04-19T18:59:04.912Z,24.30
2023-04-19T19:01:33.467Z,30.48
2023-04-19T19:06:33.045Z,33.15
2023-04-19T19:09:04.229Z,34.75
2023-04-19T19:11:55.303Z,28.92
2023-04-19T19:14:24.465Z,25.67
2023-04-19T19:16:55.627Z,28.07
2023-04-19T19:19:24.155Z,31.75
2023-04-19T19:21:54.299Z,27.08
2023-04-19T19:24:21.408Z,23.48
2023-04-19T19:26:48.663Z,25.88
2023-04-19T19:29:17.258Z,25.35
2023-04-19T19:31:44.583Z,23.98
2023-04-19T19:34:25.426Z,26.45
2023-04-19T19:36:56.030Z,26.20
2023-04-19T19:39:23.094Z,28.38
2023-04-19T19:42:05.241Z,26.70
2023-04-19T19:44:33.381Z,37.67
2023-04-19T19:47:00.612Z,24.00
2023-04-19T19:49:28.023Z,22.90
2023-04-19T19:51:58.493Z,19.48
2023-04-19T19:54:27.896Z,22.50
2023-04-19T19:59:30.263Z,22.20
2023-04-19T20:01:58.989Z,27.33
2023-04-19T20:04:26.353Z,21.52
2023-04-19T20:09:23.713Z,22.25
2023-04-19T20:11:50.759Z,21.83
2023-04-19T20:14:17.930Z,20.35
2023-04-19T20:16:45.134Z,17.35
2023-04-19T20:19:12.998Z,20.50
2023-04-19T20:21:42.639Z,19.35
2023-04-19T20:24:09.850Z,22.30
2023-04-19T20:26:36.915Z,22.00
2023-04-19T20:29:04.085Z,21.33
2023-04-19T20:31:31.357Z,19.60
2023-04-19T20:33:59.134Z,22.70
2023-04-19T20:36:27.817Z,23.65
2023-04-19T20:38:57.197Z,24.00
2023-04-19T20:41:24.528Z,19.60
2023-04-19T20:43:51.917Z,23.90
2023-04-19T20:46:21.500Z,21.35
2023-04-19T20:48:48.714Z,24.48
2023-04-19T20:51:16.507Z,23.13
2023-04-19T20:53:43.680Z,22.92
2023-04-19T20:56:10.829Z,23.15
2023-04-19T20:58:39.420Z,27.30
2023-04-19T21:01:06.677Z,23.35
2023-04-19T21:03:34.000Z,23.08
2023-04-19T21:06:01.282Z,22.85
2023-04-19T21:08:28.719Z,26.65
2023-04-19T21:10:55.991Z,25.05
2023-04-19T21:13:23.186Z,22.52
2023-04-19T21:15:50.363Z,22.73
2023-04-19T21:18:17.798Z,23.50
2023-04-19T21:20:45.167Z,19.25
2023-04-19T21:23:12.152Z,29.20
2023-04-19T21:25:40.215Z,24.88
2023-04-19T21:28:09.924Z,25.13
2023-04-19T21:30:41.025Z,32.00
2023-04-19T21:33:08.251Z,34.42
2023-04-19T21:35:35.668Z,32.53
2023-04-19T21:38:05.088Z,35.30
2023-04-19T21:40:32.080Z,35.45
2023-04-19T21:42:59.138Z,34.55
2023-04-19T21:45:26.269Z,31.45
2023-04-19T21:47:53.315Z,34.00
2023-04-19T21:50:20.814Z,40.25
2023-04-19T21:52:47.985Z,34.13
2023-04-19T21:55:15.016Z,21.73
2023-04-19T21:57:42.156Z,19.90
2023-04-19T22:00:09.935Z,23.33
2023-04-19T22:02:37.154Z,19.13
2023-04-19T22:05:07.382Z,18.90
2023-04-19T22:07:37.431Z,17.35
2023-04-19T22:10:06.506Z,16.75
2023-04-19T22:12:34.227Z,17.08
2023-04-19T22:15:02.494Z,16.95
2023-04-19T22:17:30.072Z,17.30
2023-04-19T22:19:59.176Z,19.98
2023-04-19T22:22:26.234Z,20.23
2023-04-19T22:24:57.866Z,19.80
2023-04-19T22:27:25.908Z,23.45
2023-04-19T22:29:53.230Z,19.95
2023-04-19T22:32:20.347Z,21.77
2023-04-19T22:34:47.336Z,22.65
2023-04-19T22:37:14.369Z,22.80
2023-04-19T22:39:41.417Z,24.77
2023-04-19T22:42:08.574Z,24.90
2023-04-19T22:44:35.762Z,27.45
2023-04-19T22:47:03.527Z,24.67
2023-04-19T22:49:30.539Z,21.85
2023-04-19T22:51:58.611Z,17.83
2023-04-19T22:54:28.318Z,18.88
2023-04-19T22:56:55.525Z,24.08
2023-04-19T22:59:22.776Z,23.80
2023-04-19T23:01:50.236Z,23.50
2023-04-19T23:04:18.956Z,22.92
2023-04-19T23:06:48.975Z,20.90
2023-04-19T23:09:16.646Z,20.85
2023-04-19T23:11:46.417Z,18.05
2023-04-19T23:14:14.141Z,20.65
2023-04-19T23:16:41.389Z,19.27
2023-04-19T23:19:08.733Z,16.55
2023-04-19T23:21:36.372Z,18.10
2023-04-19T23:24:03.503Z,20.83
2023-04-19T23:26:30.573Z,19.33
2023-04-19T23:28:57.797Z,17.25
2023-04-19T23:31:24.875Z,21.67
2023-04-19T23:33:51.960Z,15.43
2023-04-19T23:36:19.076Z,21.92
2023-04-19T23:38:48.552Z,17.38
2023-04-19T23:41:16.129Z,16.23
2023-04-19T23:43:48.080Z,14.65
2023-04-19T23:46:15.190Z,17.25
2023-04-19T23:48:42.321Z,16.45
2023-04-19T23:51:09.523Z,16.65
2023-04-19T23:53:36.577Z,16.73
2023-04-19T23:56:03.875Z,15.23
2023-04-19T23:58:30.997Z,16.48
